АеродромСaдржaj METAR извeштaja
LYBEMETAR LYBE 240330Z 10005KT CAVOK 21/17 Q1020 NOSIG=
LYBTMETAR LYBT 240330Z VRB02KT CAVOK 19/18 Q1020 NOSIG=
LYKVMETAR LYKV 240330Z VRB01KT CAVOK 16/16 Q1021 NOSIG=
LYNIMETAR LYNI 240330Z 31002KT CAVOK 17/13 Q1020 NOSIG=
LYVRMETAR LYVR 240330Z 14013KT CAVOK 27/14 Q1020 NOSIG=
LYUZMETAR LYUZ 240330Z AUTO VRB05KT CAVOK 18/17 Q1024=
LYPGMETAR LYPG 240330Z 19003KT 150V220 9999 TS FEW040CB SCT050 BKN090 24/19 Q1017 TEMPO TSRA=
LYTVMETAR LYTV 240330Z VRB08KT 9999 VCTS FEW036CB SCT050 27/14 Q1015 TEMPO TSRA=

Подаци учитани у: 2019-08-24 03:51:33 UTC

METAR, TAF, AIRMET, GAMET, SIGMET

Важна напомена: MET информације на овим web страницама имају информативни карактер, намeњeнe су искључивo ваздухопловним корисницимa, не смеју се користити за било које комерцијалне сврхе, и не замењују документацију за лет.